sensor_id;sensor_type;location;lat;lon;timestamp;temperature;humidity
16315;DHT22;8266;52.150;4.768;2022-07-29T00:01:53;20.10;99.00
16315;DHT22;8266;52.150;4.768;2022-07-29T00:04:20;20.10;99.10
16315;DHT22;8266;52.150;4.768;2022-07-29T00:06:47;20.10;99.20
16315;DHT22;8266;52.150;4.768;2022-07-29T00:09:13;20.10;99.40
16315;DHT22;8266;52.150;4.768;2022-07-29T00:11:42;20.10;99.60
16315;DHT22;8266;52.150;4.768;2022-07-29T00:14:09;20.00;99.60
16315;DHT22;8266;52.150;4.768;2022-07-29T00:16:36;20.00;99.70
16315;DHT22;8266;52.150;4.768;2022-07-29T00:19:03;20.00;99.90
16315;DHT22;8266;52.150;4.768;2022-07-29T00:21:30;20.00;99.90
16315;DHT22;8266;52.150;4.768;2022-07-29T00:23:57;19.90;99.90
16315;DHT22;8266;52.150;4.768;2022-07-29T00:26:24;19.90;99.90
16315;DHT22;8266;52.150;4.768;2022-07-29T00:28:55;19.90;99.90
16315;DHT22;8266;52.150;4.768;2022-07-29T00:31:21;19.90;99.90
16315;DHT22;8266;52.150;4.768;2022-07-29T00:33:49;19.80;99.90
16315;DHT22;8266;52.150;4.768;2022-07-29T00:36:16;19.80;99.90
16315;DHT22;8266;52.150;4.768;2022-07-29T00:38:42;19.80;99.90
16315;DHT22;8266;52.150;4.768;2022-07-29T00:41:10;19.70;99.90
16315;DHT22;8266;52.150;4.768;2022-07-29T00:43:38;19.70;99.90
16315;DHT22;8266;52.150;4.768;2022-07-29T00:46:06;19.70;99.90
16315;DHT22;8266;52.150;4.768;2022-07-29T00:48:33;19.70;99.90
16315;DHT22;8266;52.150;4.768;2022-07-29T00:51:03;19.70;99.90
16315;DHT22;8266;52.150;4.768;2022-07-29T00:53:30;19.60;99.90
16315;DHT22;8266;52.150;4.768;2022-07-29T00:55:58;19.60;99.90
16315;DHT22;8266;52.150;4.768;2022-07-29T00:58:26;19.60;99.90
16315;DHT22;8266;52.150;4.768;2022-07-29T01:00:53;19.50;99.90
16315;DHT22;8266;52.150;4.768;2022-07-29T01:03:22;19.60;99.90
16315;DHT22;8266;52.150;4.768;2022-07-29T01:05:49;19.50;99.90
16315;DHT22;8266;52.150;4.768;2022-07-29T01:08:17;19.50;99.90
16315;DHT22;8266;52.150;4.768;2022-07-29T01:10:46;19.50;99.90
16315;DHT22;8266;52.150;4.768;2022-07-29T01:13:14;19.50;99.90
16315;DHT22;8266;52.150;4.768;2022-07-29T01:15:45;19.50;99.90
16315;DHT22;8266;52.150;4.768;2022-07-29T01:18:17;19.50;99.90
16315;DHT22;8266;52.150;4.768;2022-07-29T01:21:01;19.40;99.90
16315;DHT22;8266;52.150;4.768;2022-07-29T01:23:58;19.50;99.90
16315;DHT22;8266;52.150;4.768;2022-07-29T01:26:34;19.40;99.90
16315;DHT22;8266;52.150;4.768;2022-07-29T01:29:16;19.40;99.90
16315;DHT22;8266;52.150;4.768;2022-07-29T01:31:47;19.40;99.90
16315;DHT22;8266;52.150;4.768;2022-07-29T01:34:21;19.40;99.90
16315;DHT22;8266;52.150;4.768;2022-07-29T01:36:51;19.40;99.90
16315;DHT22;8266;52.150;4.768;2022-07-29T01:39:30;19.40;99.90
16315;DHT22;8266;52.150;4.768;2022-07-29T01:42:04;19.40;99.90
16315;DHT22;8266;52.150;4.768;2022-07-29T01:44:37;19.30;99.90
16315;DHT22;8266;52.150;4.768;2022-07-29T01:47:12;19.30;99.90
16315;DHT22;8266;52.150;4.768;2022-07-29T01:49:48;19.20;99.90
16315;DHT22;8266;52.150;4.768;2022-07-29T01:52:21;19.20;99.90
16315;DHT22;8266;52.150;4.768;2022-07-29T01:54:53;19.20;99.90
16315;DHT22;8266;52.150;4.768;2022-07-29T01:57:25;19.20;99.90
16315;DHT22;8266;52.150;4.768;2022-07-29T01:59:54;19.10;99.90
16315;DHT22;8266;52.150;4.768;2022-07-29T02:02:23;19.20;99.90
16315;DHT22;8266;52.150;4.768;2022-07-29T02:04:52;19.20;99.90
16315;DHT22;8266;52.150;4.768;2022-07-29T02:07:22;19.20;99.90
16315;DHT22;8266;52.150;4.768;2022-07-29T02:09:51;19.10;99.90
16315;DHT22;8266;52.150;4.768;2022-07-29T02:12:20;19.10;99.90
16315;DHT22;8266;52.150;4.768;2022-07-29T02:14:52;19.10;99.90
16315;DHT22;8266;52.150;4.768;2022-07-29T02:17:26;19.10;99.90
16315;DHT22;8266;52.150;4.768;2022-07-29T02:19:58;19.10;99.90
16315;DHT22;8266;52.150;4.768;2022-07-29T02:22:28;19.00;99.90
16315;DHT22;8266;52.150;4.768;2022-07-29T02:24:55;19.00;99.90
16315;DHT22;8266;52.150;4.768;2022-07-29T02:27:23;19.00;99.90
16315;DHT22;8266;52.150;4.768;2022-07-29T02:29:52;19.00;99.90
16315;DHT22;8266;52.150;4.768;2022-07-29T02:32:21;19.00;99.90
16315;DHT22;8266;52.150;4.768;2022-07-29T02:34:50;18.90;99.90
16315;DHT22;8266;52.150;4.768;2022-07-29T02:37:18;18.90;99.90
16315;DHT22;8266;52.150;4.768;2022-07-29T02:39:47;18.90;99.90
16315;DHT22;8266;52.150;4.768;2022-07-29T02:42:16;18.90;99.90
16315;DHT22;8266;52.150;4.768;2022-07-29T02:44:44;18.90;99.90
16315;DHT22;8266;52.150;4.768;2022-07-29T02:47:16;18.90;99.90
16315;DHT22;8266;52.150;4.768;2022-07-29T02:49:50;18.90;99.90
16315;DHT22;8266;52.150;4.768;2022-07-29T02:52:23;18.90;99.90
16315;DHT22;8266;52.150;4.768;2022-07-29T02:54:54;18.90;99.90
16315;DHT22;8266;52.150;4.768;2022-07-29T02:57:31;18.80;99.90
16315;DHT22;8266;52.150;4.768;2022-07-29T03:00:06;18.80;99.90
16315;DHT22;8266;52.150;4.768;2022-07-29T03:02:36;18.80;99.90
16315;DHT22;8266;52.150;4.768;2022-07-29T03:05:08;18.80;99.90
16315;DHT22;8266;52.150;4.768;2022-07-29T03:07:37;18.80;99.90
16315;DHT22;8266;52.150;4.768;2022-07-29T03:10:06;18.80;99.90
16315;DHT22;8266;52.150;4.768;2022-07-29T03:12:35;18.80;99.90
16315;DHT22;8266;52.150;4.768;2022-07-29T03:15:03;18.80;99.90
16315;DHT22;8266;52.150;4.768;2022-07-29T03:17:31;18.80;99.90
16315;DHT22;8266;52.150;4.768;2022-07-29T03:19:58;18.70;99.90
16315;DHT22;8266;52.150;4.768;2022-07-29T03:22:27;18.70;99.90
16315;DHT22;8266;52.150;4.768;2022-07-29T03:24:54;18.70;99.90
16315;DHT22;8266;52.150;4.768;2022-07-29T03:27:21;18.70;99.90
16315;DHT22;8266;52.150;4.768;2022-07-29T03:29:48;18.70;99.90
16315;DHT22;8266;52.150;4.768;2022-07-29T03:32:15;18.70;99.90
16315;DHT22;8266;52.150;4.768;2022-07-29T03:34:42;18.70;99.90
16315;DHT22;8266;52.150;4.768;2022-07-29T03:37:10;18.60;99.90
16315;DHT22;8266;52.150;4.768;2022-07-29T03:39:41;18.60;99.90
16315;DHT22;8266;52.150;4.768;2022-07-29T03:42:12;18.70;99.90
16315;DHT22;8266;52.150;4.768;2022-07-29T03:44:42;18.60;99.90
16315;DHT22;8266;52.150;4.768;2022-07-29T03:47:10;18.60;99.90
16315;DHT22;8266;52.150;4.768;2022-07-29T03:49:40;18.60;99.90
16315;DHT22;8266;52.150;4.768;2022-07-29T03:52:07;18.60;99.90
16315;DHT22;8266;52.150;4.768;2022-07-29T03:54:35;18.60;99.90
16315;DHT22;8266;52.150;4.768;2022-07-29T03:57:04;18.60;99.90
16315;DHT22;8266;52.150;4.768;2022-07-29T03:59:33;18.60;99.90
16315;DHT22;8266;52.150;4.768;2022-07-29T04:02:01;18.60;99.90
16315;DHT22;8266;52.150;4.768;2022-07-29T04:04:29;18.60;99.90
16315;DHT22;8266;52.150;4.768;2022-07-29T04:06:58;18.60;99.90
16315;DHT22;8266;52.150;4.768;2022-07-29T04:09:26;18.60;99.90
16315;DHT22;8266;52.150;4.768;2022-07-29T04:11:56;18.60;99.90
16315;DHT22;8266;52.150;4.768;2022-07-29T04:14:24;18.60;99.90
16315;DHT22;8266;52.150;4.768;2022-07-29T04:16:51;18.50;99.90
16315;DHT22;8266;52.150;4.768;2022-07-29T04:19:19;18.50;99.90
16315;DHT22;8266;52.150;4.768;2022-07-29T04:21:46;18.50;99.90
16315;DHT22;8266;52.150;4.768;2022-07-29T04:24:13;18.50;99.90
16315;DHT22;8266;52.150;4.768;2022-07-29T04:26:40;18.50;99.90
16315;DHT22;8266;52.150;4.768;2022-07-29T04:29:08;18.50;99.90
16315;DHT22;8266;52.150;4.768;2022-07-29T04:31:38;18.50;99.90
16315;DHT22;8266;52.150;4.768;2022-07-29T04:34:05;18.50;99.90
16315;DHT22;8266;52.150;4.768;2022-07-29T04:36:32;18.50;99.90
16315;DHT22;8266;52.150;4.768;2022-07-29T04:38:59;18.50;99.90
16315;DHT22;8266;52.150;4.768;2022-07-29T04:41:26;18.40;99.90
16315;DHT22;8266;52.150;4.768;2022-07-29T04:43:53;18.50;99.90
16315;DHT22;8266;52.150;4.768;2022-07-29T04:46:20;18.40;99.90
16315;DHT22;8266;52.150;4.768;2022-07-29T04:48:49;18.50;99.90
16315;DHT22;8266;52.150;4.768;2022-07-29T04:51:16;18.40;99.90
16315;DHT22;8266;52.150;4.768;2022-07-29T04:53:43;18.40;99.90
16315;DHT22;8266;52.150;4.768;2022-07-29T04:56:10;18.40;99.90
16315;DHT22;8266;52.150;4.768;2022-07-29T04:58:37;18.40;99.90
16315;DHT22;8266;52.150;4.768;2022-07-29T05:01:04;18.40;99.90
16315;DHT22;8266;52.150;4.768;2022-07-29T05:03:31;18.50;99.90
16315;DHT22;8266;52.150;4.768;2022-07-29T05:05:59;18.50;99.90
16315;DHT22;8266;52.150;4.768;2022-07-29T05:08:26;18.50;99.90
16315;DHT22;8266;52.150;4.768;2022-07-29T05:10:53;18.50;99.90
16315;DHT22;8266;52.150;4.768;2022-07-29T05:13:21;18.50;99.90
16315;DHT22;8266;52.150;4.768;2022-07-29T05:15:50;18.50;99.90
16315;DHT22;8266;52.150;4.768;2022-07-29T05:18:17;18.50;99.90
16315;DHT22;8266;52.150;4.768;2022-07-29T05:20:44;18.50;99.90
16315;DHT22;8266;52.150;4.768;2022-07-29T05:23:12;18.60;99.90
16315;DHT22;8266;52.150;4.768;2022-07-29T05:25:40;18.50;99.90
16315;DHT22;8266;52.150;4.768;2022-07-29T05:28:07;18.60;99.90
16315;DHT22;8266;52.150;4.768;2022-07-29T05:30:34;18.60;99.90
16315;DHT22;8266;52.150;4.768;2022-07-29T05:33:01;18.60;99.90
16315;DHT22;8266;52.150;4.768;2022-07-29T05:35:28;18.60;99.90
16315;DHT22;8266;52.150;4.768;2022-07-29T05:37:55;18.60;99.90
16315;DHT22;8266;52.150;4.768;2022-07-29T05:40:24;18.60;99.90
16315;DHT22;8266;52.150;4.768;2022-07-29T05:42:51;18.60;99.90
16315;DHT22;8266;52.150;4.768;2022-07-29T05:45:18;18.60;99.90
16315;DHT22;8266;52.150;4.768;2022-07-29T05:47:45;18.60;99.90
16315;DHT22;8266;52.150;4.768;2022-07-29T05:50:12;18.60;99.90
16315;DHT22;8266;52.150;4.768;2022-07-29T05:52:39;18.70;99.90
16315;DHT22;8266;52.150;4.768;2022-07-29T05:55:06;18.70;99.90
16315;DHT22;8266;52.150;4.768;2022-07-29T05:57:35;18.70;99.90
16315;DHT22;8266;52.150;4.768;2022-07-29T06:00:03;18.80;99.90
16315;DHT22;8266;52.150;4.768;2022-07-29T06:02:30;18.80;99.90
16315;DHT22;8266;52.150;4.768;2022-07-29T06:04:59;18.80;99.90
16315;DHT22;8266;52.150;4.768;2022-07-29T06:07:26;18.90;99.90
16315;DHT22;8266;52.150;4.768;2022-07-29T06:09:53;18.90;99.90
16315;DHT22;8266;52.150;4.768;2022-07-29T06:12:20;18.90;99.90
16315;DHT22;8266;52.150;4.768;2022-07-29T06:14:48;19.00;99.90
16315;DHT22;8266;52.150;4.768;2022-07-29T06:17:16;19.00;99.90
16315;DHT22;8266;52.150;4.768;2022-07-29T06:19:43;19.10;99.90
16315;DHT22;8266;52.150;4.768;2022-07-29T06:22:09;19.10;99.90
16315;DHT22;8266;52.150;4.768;2022-07-29T06:24:36;19.10;99.90
16315;DHT22;8266;52.150;4.768;2022-07-29T06:27:06;19.20;99.90
16315;DHT22;8266;52.150;4.768;2022-07-29T06:29:34;19.20;99.90
16315;DHT22;8266;52.150;4.768;2022-07-29T06:32:02;19.30;99.90
16315;DHT22;8266;52.150;4.768;2022-07-29T06:34:29;19.40;99.90
16315;DHT22;8266;52.150;4.768;2022-07-29T06:36:56;19.40;99.90
16315;DHT22;8266;52.150;4.768;2022-07-29T06:39:23;19.50;99.90
16315;DHT22;8266;52.150;4.768;2022-07-29T06:41:50;19.60;99.90
16315;DHT22;8266;52.150;4.768;2022-07-29T06:44:17;19.70;99.90
16315;DHT22;8266;52.150;4.768;2022-07-29T06:46:44;19.70;99.90
16315;DHT22;8266;52.150;4.768;2022-07-29T06:49:15;19.80;99.90
16315;DHT22;8266;52.150;4.768;2022-07-29T06:51:42;19.90;99.90
16315;DHT22;8266;52.150;4.768;2022-07-29T06:54:09;20.00;99.90
16315;DHT22;8266;52.150;4.768;2022-07-29T06:56:37;20.10;99.90
16315;DHT22;8266;52.150;4.768;2022-07-29T06:59:10;20.20;99.90
16315;DHT22;8266;52.150;4.768;2022-07-29T07:01:39;20.30;99.90
16315;DHT22;8266;52.150;4.768;2022-07-29T07:04:06;20.50;99.90
16315;DHT22;8266;52.150;4.768;2022-07-29T07:06:35;20.70;99.90
16315;DHT22;8266;52.150;4.768;2022-07-29T07:09:02;20.90;99.90
16315;DHT22;8266;52.150;4.768;2022-07-29T07:11:29;21.10;99.90
16315;DHT22;8266;52.150;4.768;2022-07-29T07:13:57;21.30;99.90
16315;DHT22;8266;52.150;4.768;2022-07-29T07:16:23;21.50;99.90
16315;DHT22;8266;52.150;4.768;2022-07-29T07:18:50;21.70;99.90
16315;DHT22;8266;52.150;4.768;2022-07-29T07:21:17;21.90;99.90
16315;DHT22;8266;52.150;4.768;2022-07-29T07:23:45;22.00;99.90
16315;DHT22;8266;52.150;4.768;2022-07-29T07:26:13;22.20;99.90
16315;DHT22;8266;52.150;4.768;2022-07-29T07:28:40;22.30;99.90
16315;DHT22;8266;52.150;4.768;2022-07-29T07:31:07;22.40;99.90
16315;DHT22;8266;52.150;4.768;2022-07-29T07:33:36;22.40;99.90
16315;DHT22;8266;52.150;4.768;2022-07-29T07:36:03;22.40;99.90
16315;DHT22;8266;52.150;4.768;2022-07-29T07:38:30;22.50;99.90
16315;DHT22;8266;52.150;4.768;2022-07-29T07:40:58;22.60;99.90
16315;DHT22;8266;52.150;4.768;2022-07-29T07:43:25;22.70;99.90
16315;DHT22;8266;52.150;4.768;2022-07-29T07:45:52;22.80;99.90
16315;DHT22;8266;52.150;4.768;2022-07-29T07:48:19;22.90;99.90
16315;DHT22;8266;52.150;4.768;2022-07-29T07:50:46;22.90;99.90
16315;DHT22;8266;52.150;4.768;2022-07-29T07:53:15;23.00;99.90
16315;DHT22;8266;52.150;4.768;2022-07-29T07:55:42;23.10;99.90
16315;DHT22;8266;52.150;4.768;2022-07-29T07:58:11;23.10;99.90
16315;DHT22;8266;52.150;4.768;2022-07-29T08:00:38;23.20;99.90
16315;DHT22;8266;52.150;4.768;2022-07-29T08:03:05;23.20;99.90
16315;DHT22;8266;52.150;4.768;2022-07-29T08:05:31;23.20;99.90
16315;DHT22;8266;52.150;4.768;2022-07-29T08:07:58;23.20;99.90
16315;DHT22;8266;52.150;4.768;2022-07-29T08:10:25;23.30;99.90
16315;DHT22;8266;52.150;4.768;2022-07-29T08:13:13;23.30;99.90
16315;DHT22;8266;52.150;4.768;2022-07-29T08:15:40;23.30;99.90
16315;DHT22;8266;52.150;4.768;2022-07-29T08:18:11;23.40;99.90
16315;DHT22;8266;52.150;4.768;2022-07-29T08:20:39;23.40;99.90
16315;DHT22;8266;52.150;4.768;2022-07-29T08:23:07;23.40;99.90
16315;DHT22;8266;52.150;4.768;2022-07-29T08:25:35;23.40;99.90
16315;DHT22;8266;52.150;4.768;2022-07-29T08:28:02;23.40;99.90
16315;DHT22;8266;52.150;4.768;2022-07-29T08:30:31;23.30;99.90
16315;DHT22;8266;52.150;4.768;2022-07-29T08:32:58;23.30;99.90
16315;DHT22;8266;52.150;4.768;2022-07-29T08:35:25;23.20;99.90
16315;DHT22;8266;52.150;4.768;2022-07-29T08:37:52;23.20;99.90
16315;DHT22;8266;52.150;4.768;2022-07-29T08:40:20;23.20;99.90
16315;DHT22;8266;52.150;4.768;2022-07-29T08:42:49;23.10;99.90
16315;DHT22;8266;52.150;4.768;2022-07-29T08:45:16;23.10;99.90
16315;DHT22;8266;52.150;4.768;2022-07-29T08:47:45;23.10;99.90
16315;DHT22;8266;52.150;4.768;2022-07-29T08:50:12;23.20;99.90
16315;DHT22;8266;52.150;4.768;2022-07-29T08:52:41;23.20;99.90
16315;DHT22;8266;52.150;4.768;2022-07-29T08:55:09;23.20;99.90
16315;DHT22;8266;52.150;4.768;2022-07-29T08:57:38;23.20;99.90
16315;DHT22;8266;52.150;4.768;2022-07-29T09:00:07;23.20;99.90
16315;DHT22;8266;52.150;4.768;2022-07-29T09:02:39;23.30;99.90
16315;DHT22;8266;52.150;4.768;2022-07-29T09:05:08;23.40;99.90
16315;DHT22;8266;52.150;4.768;2022-07-29T09:07:36;23.50;99.90
16315;DHT22;8266;52.150;4.768;2022-07-29T09:10:06;23.60;99.90
16315;DHT22;8266;52.150;4.768;2022-07-29T09:12:34;23.70;99.90
16315;DHT22;8266;52.150;4.768;2022-07-29T09:15:00;23.80;99.90
16315;DHT22;8266;52.150;4.768;2022-07-29T09:17:41;23.80;99.90
16315;DHT22;8266;52.150;4.768;2022-07-29T09:20:11;24.00;99.90
16315;DHT22;8266;52.150;4.768;2022-07-29T09:22:38;24.10;99.90
16315;DHT22;8266;52.150;4.768;2022-07-29T09:25:06;24.10;99.90
16315;DHT22;8266;52.150;4.768;2022-07-29T09:27:33;24.20;99.90
16315;DHT22;8266;52.150;4.768;2022-07-29T09:30:03;24.20;99.50
16315;DHT22;8266;52.150;4.768;2022-07-29T09:32:31;24.20;99.40
16315;DHT22;8266;52.150;4.768;2022-07-29T09:35:20;24.30;99.50
16315;DHT22;8266;52.150;4.768;2022-07-29T09:37:47;24.30;99.80
16315;DHT22;8266;52.150;4.768;2022-07-29T09:40:16;24.40;99.90
16315;DHT22;8266;52.150;4.768;2022-07-29T09:42:44;24.40;99.90
16315;DHT22;8266;52.150;4.768;2022-07-29T09:45:11;24.50;99.90
16315;DHT22;8266;52.150;4.768;2022-07-29T09:47:43;24.60;99.80
16315;DHT22;8266;52.150;4.768;2022-07-29T09:50:37;24.70;99.40
16315;DHT22;8266;52.150;4.768;2022-07-29T09:53:04;24.80;99.60
16315;DHT22;8266;52.150;4.768;2022-07-29T09:55:31;24.80;99.30
16315;DHT22;8266;52.150;4.768;2022-07-29T09:58:16;24.90;99.00
16315;DHT22;8266;52.150;4.768;2022-07-29T10:00:44;25.00;99.00
16315;DHT22;8266;52.150;4.768;2022-07-29T10:03:12;25.00;99.30
16315;DHT22;8266;52.150;4.768;2022-07-29T10:05:44;25.20;99.00
16315;DHT22;8266;52.150;4.768;2022-07-29T10:08:12;25.20;98.60
16315;DHT22;8266;52.150;4.768;2022-07-29T10:10:41;25.30;98.90
16315;DHT22;8266;52.150;4.768;2022-07-29T10:13:11;25.40;99.00
16315;DHT22;8266;52.150;4.768;2022-07-29T10:15:40;25.40;98.60
16315;DHT22;8266;52.150;4.768;2022-07-29T10:18:09;25.50;98.40
16315;DHT22;8266;52.150;4.768;2022-07-29T10:20:39;25.60;98.20
16315;DHT22;8266;52.150;4.768;2022-07-29T10:23:06;25.70;98.50
16315;DHT22;8266;52.150;4.768;2022-07-29T10:25:45;25.80;98.30
16315;DHT22;8266;52.150;4.768;2022-07-29T10:28:12;25.90;98.20
16315;DHT22;8266;52.150;4.768;2022-07-29T10:30:40;26.00;97.90
16315;DHT22;8266;52.150;4.768;2022-07-29T10:33:26;26.30;97.50
16315;DHT22;8266;52.150;4.768;2022-07-29T10:36:19;26.50;97.50
16315;DHT22;8266;52.150;4.768;2022-07-29T10:38:53;26.80;97.10
16315;DHT22;8266;52.150;4.768;2022-07-29T10:41:39;27.00;96.60
16315;DHT22;8266;52.150;4.768;2022-07-29T10:44:14;27.20;95.80
16315;DHT22;8266;52.150;4.768;2022-07-29T10:46:43;27.30;95.70
16315;DHT22;8266;52.150;4.768;2022-07-29T10:49:14;27.50;95.60
16315;DHT22;8266;52.150;4.768;2022-07-29T10:52:03;27.70;94.50
16315;DHT22;8266;52.150;4.768;2022-07-29T10:54:47;27.90;94.70
16315;DHT22;8266;52.150;4.768;2022-07-29T10:57:24;28.10;93.90
16315;DHT22;8266;52.150;4.768;2022-07-29T11:00:30;28.30;93.40
16315;DHT22;8266;52.150;4.768;2022-07-29T11:02:58;28.40;93.10
16315;DHT22;8266;52.150;4.768;2022-07-29T11:05:26;28.40;92.20
16315;DHT22;8266;52.150;4.768;2022-07-29T11:08:18;28.50;91.90
16315;DHT22;8266;52.150;4.768;2022-07-29T11:14:02;28.50;91.20
16315;DHT22;8266;52.150;4.768;2022-07-29T11:17:03;28.50;90.50
16315;DHT22;8266;52.150;4.768;2022-07-29T11:19:30;28.50;90.60
16315;DHT22;8266;52.150;4.768;2022-07-29T11:21:57;28.50;90.70
16315;DHT22;8266;52.150;4.768;2022-07-29T11:24:27;28.60;89.90
16315;DHT22;8266;52.150;4.768;2022-07-29T11:27:12;28.60;88.70
16315;DHT22;8266;52.150;4.768;2022-07-29T11:29:48;28.50;90.10
16315;DHT22;8266;52.150;4.768;2022-07-29T11:32:16;28.50;89.20
16315;DHT22;8266;52.150;4.768;2022-07-29T11:34:46;28.50;88.20
16315;DHT22;8266;52.150;4.768;2022-07-29T11:37:23;28.50;89.70
16315;DHT22;8266;52.150;4.768;2022-07-29T11:40:17;28.40;87.10
16315;DHT22;8266;52.150;4.768;2022-07-29T11:42:49;28.40;88.40
16315;DHT22;8266;52.150;4.768;2022-07-29T11:45:24;28.40;87.70
16315;DHT22;8266;52.150;4.768;2022-07-29T11:47:56;28.30;87.20
16315;DHT22;8266;52.150;4.768;2022-07-29T11:50:33;28.30;89.00
16315;DHT22;8266;52.150;4.768;2022-07-29T11:53:01;28.40;88.30
16315;DHT22;8266;52.150;4.768;2022-07-29T11:55:30;28.50;88.30
16315;DHT22;8266;52.150;4.768;2022-07-29T11:58:01;28.50;87.70
16315;DHT22;8266;52.150;4.768;2022-07-29T12:00:31;28.50;88.10
16315;DHT22;8266;52.150;4.768;2022-07-29T12:02:59;28.60;87.90
16315;DHT22;8266;52.150;4.768;2022-07-29T12:05:36;28.70;87.40
16315;DHT22;8266;52.150;4.768;2022-07-29T12:08:08;28.80;87.60
16315;DHT22;8266;52.150;4.768;2022-07-29T12:10:39;28.90;85.70
16315;DHT22;8266;52.150;4.768;2022-07-29T12:13:06;28.90;85.30
16315;DHT22;8266;52.150;4.768;2022-07-29T12:15:34;28.90;85.40
16315;DHT22;8266;52.150;4.768;2022-07-29T12:18:10;29.00;85.00
16315;DHT22;8266;52.150;4.768;2022-07-29T12:20:38;29.00;85.50
16315;DHT22;8266;52.150;4.768;2022-07-29T12:23:06;29.00;85.00
16315;DHT22;8266;52.150;4.768;2022-07-29T12:25:40;29.20;83.20
16315;DHT22;8266;52.150;4.768;2022-07-29T12:28:10;29.30;81.50
16315;DHT22;8266;52.150;4.768;2022-07-29T12:30:42;29.40;82.20
16315;DHT22;8266;52.150;4.768;2022-07-29T12:33:18;29.50;81.00
16315;DHT22;8266;52.150;4.768;2022-07-29T12:35:47;29.60;82.20
16315;DHT22;8266;52.150;4.768;2022-07-29T12:38:15;29.80;81.10
16315;DHT22;8266;52.150;4.768;2022-07-29T12:40:44;29.90;81.70
16315;DHT22;8266;52.150;4.768;2022-07-29T12:43:14;30.00;78.30
16315;DHT22;8266;52.150;4.768;2022-07-29T12:45:43;30.10;79.20
16315;DHT22;8266;52.150;4.768;2022-07-29T12:48:10;30.10;77.10
16315;DHT22;8266;52.150;4.768;2022-07-29T12:50:53;30.20;76.90
16315;DHT22;8266;52.150;4.768;2022-07-29T12:53:20;30.20;77.60
16315;DHT22;8266;52.150;4.768;2022-07-29T12:55:50;30.20;76.40
16315;DHT22;8266;52.150;4.768;2022-07-29T12:58:28;30.20;75.00
16315;DHT22;8266;52.150;4.768;2022-07-29T13:01:08;30.20;75.00
16315;DHT22;8266;52.150;4.768;2022-07-29T13:03:47;30.30;74.30
16315;DHT22;8266;52.150;4.768;2022-07-29T13:06:34;30.30;74.40
16315;DHT22;8266;52.150;4.768;2022-07-29T13:09:05;30.30;74.90
16315;DHT22;8266;52.150;4.768;2022-07-29T13:11:34;30.30;74.70
16315;DHT22;8266;52.150;4.768;2022-07-29T13:14:02;30.30;75.50
16315;DHT22;8266;52.150;4.768;2022-07-29T13:16:30;30.50;75.80
16315;DHT22;8266;52.150;4.768;2022-07-29T13:19:08;30.60;74.70
16315;DHT22;8266;52.150;4.768;2022-07-29T13:21:39;30.70;74.00
16315;DHT22;8266;52.150;4.768;2022-07-29T13:24:07;30.90;73.00
16315;DHT22;8266;52.150;4.768;2022-07-29T13:26:39;31.10;73.40
16315;DHT22;8266;52.150;4.768;2022-07-29T13:29:09;31.20;70.40
16315;DHT22;8266;52.150;4.768;2022-07-29T13:31:37;31.30;71.10
16315;DHT22;8266;52.150;4.768;2022-07-29T13:34:07;31.40;68.80
16315;DHT22;8266;52.150;4.768;2022-07-29T13:36:34;31.40;68.50
16315;DHT22;8266;52.150;4.768;2022-07-29T13:39:01;31.50;68.20
16315;DHT22;8266;52.150;4.768;2022-07-29T13:41:29;31.60;66.80
16315;DHT22;8266;52.150;4.768;2022-07-29T13:43:57;31.60;67.70
16315;DHT22;8266;52.150;4.768;2022-07-29T13:46:24;31.70;66.70
16315;DHT22;8266;52.150;4.768;2022-07-29T13:48:51;31.80;66.40
16315;DHT22;8266;52.150;4.768;2022-07-29T13:51:18;31.90;64.20
16315;DHT22;8266;52.150;4.768;2022-07-29T13:53:45;31.90;63.10
16315;DHT22;8266;52.150;4.768;2022-07-29T13:56:12;32.00;62.40
16315;DHT22;8266;52.150;4.768;2022-07-29T13:58:40;32.00;61.30
16315;DHT22;8266;52.150;4.768;2022-07-29T14:01:08;32.00;61.70
16315;DHT22;8266;52.150;4.768;2022-07-29T14:03:35;32.10;61.20
16315;DHT22;8266;52.150;4.768;2022-07-29T14:06:06;32.10;62.00
16315;DHT22;8266;52.150;4.768;2022-07-29T14:08:33;32.20;60.60
16315;DHT22;8266;52.150;4.768;2022-07-29T14:11:00;32.20;61.00
16315;DHT22;8266;52.150;4.768;2022-07-29T14:13:28;32.20;60.90
16315;DHT22;8266;52.150;4.768;2022-07-29T14:15:55;32.10;60.50
16315;DHT22;8266;52.150;4.768;2022-07-29T14:18:24;32.00;59.80
16315;DHT22;8266;52.150;4.768;2022-07-29T14:20:53;31.80;59.90
16315;DHT22;8266;52.150;4.768;2022-07-29T14:23:23;31.60;60.40
16315;DHT22;8266;52.150;4.768;2022-07-29T14:25:51;31.50;61.80
16315;DHT22;8266;52.150;4.768;2022-07-29T14:28:20;31.40;61.50
16315;DHT22;8266;52.150;4.768;2022-07-29T14:30:50;31.40;61.50
16315;DHT22;8266;52.150;4.768;2022-07-29T14:33:18;31.30;61.00
16315;DHT22;8266;52.150;4.768;2022-07-29T14:35:46;31.40;61.40
16315;DHT22;8266;52.150;4.768;2022-07-29T14:38:14;31.40;61.40
16315;DHT22;8266;52.150;4.768;2022-07-29T14:40:41;31.40;62.10
16315;DHT22;8266;52.150;4.768;2022-07-29T14:43:08;31.50;62.70
16315;DHT22;8266;52.150;4.768;2022-07-29T14:45:37;31.50;62.40
16315;DHT22;8266;52.150;4.768;2022-07-29T14:48:05;31.60;62.70
16315;DHT22;8266;52.150;4.768;2022-07-29T14:51:01;31.70;62.10
16315;DHT22;8266;52.150;4.768;2022-07-29T14:53:32;31.80;62.60
16315;DHT22;8266;52.150;4.768;2022-07-29T14:56:13;31.90;61.00
16315;DHT22;8266;52.150;4.768;2022-07-29T14:59:03;31.90;61.40
16315;DHT22;8266;52.150;4.768;2022-07-29T15:01:37;32.00;61.90
16315;DHT22;8266;52.150;4.768;2022-07-29T15:04:17;31.90;61.60
16315;DHT22;8266;52.150;4.768;2022-07-29T15:06:48;32.00;62.10
16315;DHT22;8266;52.150;4.768;2022-07-29T15:09:16;32.00;61.30
16315;DHT22;8266;52.150;4.768;2022-07-29T15:11:49;32.10;61.10
16315;DHT22;8266;52.150;4.768;2022-07-29T15:14:22;32.20;61.60
16315;DHT22;8266;52.150;4.768;2022-07-29T15:16:55;32.30;61.50
16315;DHT22;8266;52.150;4.768;2022-07-29T15:19:23;32.40;60.80
16315;DHT22;8266;52.150;4.768;2022-07-29T15:22:06;32.40;60.90
16315;DHT22;8266;52.150;4.768;2022-07-29T15:24:45;32.40;59.90
16315;DHT22;8266;52.150;4.768;2022-07-29T15:27:32;32.40;59.50
16315;DHT22;8266;52.150;4.768;2022-07-29T15:30:02;32.40;60.30
16315;DHT22;8266;52.150;4.768;2022-07-29T15:32:39;32.40;59.70
16315;DHT22;8266;52.150;4.768;2022-07-29T15:35:30;32.40;59.50
16315;DHT22;8266;52.150;4.768;2022-07-29T15:38:06;32.40;60.30
16315;DHT22;8266;52.150;4.768;2022-07-29T15:40:36;32.40;59.50
16315;DHT22;8266;52.150;4.768;2022-07-29T15:43:07;32.30;59.50
16315;DHT22;8266;52.150;4.768;2022-07-29T15:45:40;32.30;59.40
16315;DHT22;8266;52.150;4.768;2022-07-29T15:48:53;32.30;60.00
16315;DHT22;8266;52.150;4.768;2022-07-29T15:51:34;32.30;59.40
16315;DHT22;8266;52.150;4.768;2022-07-29T15:54:04;32.20;59.40
16315;DHT22;8266;52.150;4.768;2022-07-29T15:56:49;32.20;58.80
16315;DHT22;8266;52.150;4.768;2022-07-29T15:59:23;32.20;59.20
16315;DHT22;8266;52.150;4.768;2022-07-29T16:02:24;32.10;59.10
16315;DHT22;8266;52.150;4.768;2022-07-29T16:04:56;32.10;59.40
16315;DHT22;8266;52.150;4.768;2022-07-29T16:07:26;32.10;59.30
16315;DHT22;8266;52.150;4.768;2022-07-29T16:10:12;32.10;59.20